x

Cape San Martin - 55nm West Nw Of Morro Bay, Ca (46028) Wave Buoy

10:50pm - Sun 30th Aug 2015 All times are PDT. -7 hours from GMT.

  • Sig Wave height 8.2ft
  • Swell Direction
  • Peak Period 6s
  • Average Period 6s
  • Wind
    31mph, 36mph gusts
  • Sea Temp 66°f
  • Air Temp 65°f
  • Sea Pressure 1012.3mb
  • Cape San Martin - 55nm West Nw Of Morro Bay, Ca
  • Cape San Martin - 55nm West Nw Of Morro Bay, Ca

More Historic Weather Station data

Upgrade to MSW Pro to gain access to the past 30 days of data for over 8000 Wavebouys and Weather Stations around the globe.

Join Pro

Comparision Forecast

View Surf forecast
   
Sun 08/30 10:50pm 8ft 6s 6s 31 36 mph 1012.3mb 66f 65f
9:50pm 8.5ft 6s 6s 29 40 mph 1012.6mb 66f 65f
8:50pm 9ft 17s 6s 29 36 mph 1012.7mb 66f 65f
7:50pm 8.5ft 6s 6s 34 38 mph 1012.1mb 66f 65f
6:50pm 8.5ft 17s 6s 29 36 mph 1012.6mb 66f 65f
5:50pm 8ft 6s 6s 31 38 mph 1013mb 66f 66f
4:50pm 8ft 17s 6s 29 36 mph 1013.9mb 66f 66f
3:50pm 8ft 6s 6s 27 31 mph 1014.3mb 66f 65f
2:50pm 7ft 6s 6s 27 34 mph 1014.9mb 66f 65f
1:50pm 7.5ft 17s 6s 27 34 mph 1015.2mb 66f 65f
12:50pm 7ft 17s 6s 27 31 mph 1015.5mb 66f 65f
11:50am 7ft 5s 6s 27 34 mph 1016mb 66f 65f
10:50am 6.5ft 6s 6s 25 29 mph 1016.3mb 66f 65f
9:50am 6.5ft 15s 6s 29 34 mph 1015.9mb 67f 65f
8:50am 6.5ft 17s 6s 27 34 mph 1015.8mb 67f 65f
7:50am 6ft 16s 5s 27 31 mph 1015.8mb 67f 65f
6:50am 6.5ft 6s 6s 27 31 mph 1015.5mb 67f 64f
5:50am 6ft 6s 6s 25 31 mph 1014.9mb 67f 65f
4:50am 5.5ft 15s 5s 25 31 mph 1014.7mb 67f 65f
3:50am 6ft 5s 5s 22 27 mph 1014.7mb 67f 65f
2:50am 5.5ft 6s 5s 25 29 mph 1014.6mb 67f 65f
1:50am 6ft 15s 6s 25 31 mph 1014.7mb 67f 65f
12:50am 5.5ft 16s 5s 25 29 mph 1014.7mb 67f 65f
Sat 08/29 11:50pm 5.5ft 15s 5s 25 29 mph 1014.6mb 66f 65f
10:50pm 5ft 14s 5s 25 29 mph 1014.4mb 66f 66f
9:50pm 5ft 16s 5s 25 29 mph 1014.4mb 66f 66f
8:50pm 4.5ft 15s 5s 22 27 mph 1014.5mb 67f 66f
7:50pm 4.5ft 17s 5s 22 27 mph 1014mb 67f 66f
6:50pm 4.5ft 15s 5s 22 27 mph 1014.2mb 67f 66f
5:50pm 3.5ft 14s 5s 18 22 mph 1014.6mb 67f 67f
4:50pm 4ft 15s 6s 18 20 mph 1015mb 68f 67f
3:50pm 4ft 15s 7s 16 18 mph 1015.2mb 68f 67f
2:50pm 3.5ft 15s 7s 16 18 mph 1015.6mb 68f 67f
1:50pm 4.5ft 15s 8s 13 16 mph 1015.7mb 68f 67f
12:50pm 3.5ft 14s 8s 11 13 mph 1015.9mb 68f 67f
11:50am 3.5ft 16s 8s 11
mph
1015.7mb 67f 67f
10:50am 3.5ft 14s 7s 13 18 mph 1015.5mb 67f 67f
9:50am 4.5ft 15s 8s 13 16 mph 1015.3mb 67f 67f
8:50am 4ft 16s 7s 13
mph
1014.9mb 67f 67f
7:50am 4ft 15s 7s 13 18 mph 1014.7mb 67f 66f
6:50am 4.5ft 15s 7s 16 18 mph 1014.3mb 67f 66f
5:50am 4ft 15s 7s 13 16 mph 1013.8mb 67f 65f
4:50am 4.5ft 16s 7s 13 16 mph 1014mb 67f 64f
3:50am 4.5ft 15s 7s 11 13 mph 1014mb 67f 64f
2:50am 4ft 15s 7s 11 13 mph 1013.9mb 67f 64f
1:50am 4.5ft 15s 7s 11 13 mph 1013.7mb 67f 64f
12:50am 4.5ft 15s 7s 13 18 mph 1013.6mb 67f 64f
Fri 08/28 11:50pm 4.5ft 15s 7s 13 16 mph 1013.1mb 67f 64f
10:50pm 4.5ft 15s 7s 13 16 mph 1013.1mb 67f 64f
9:50pm 4ft 15s 6s 16 18 mph 1013.2mb 67f 64f
8:50pm 4ft 15s 6s 16 18 mph 1012.7mb 67f 64f
7:50pm 4ft 16s 6s 16 18 mph 1012.5mb 67f 64f
6:50pm 4.5ft 15s 6s 18 20 mph 1012.6mb 67f 64f
5:50pm 4.5ft 15s 6s 18 20 mph 1012.5mb 67f 64f
4:50pm 4.5ft 16s 6s 18 22 mph 1012.2mb 67f 64f
3:50pm 3.5ft 15s 6s 13 16 mph 1012.3mb 67f 64f
2:50pm 4.5ft 15s 6s 11 13 mph 1012.7mb 67f 64f
1:50pm 4.5ft 15s 6s 11 13 mph 1012.8mb 67f 64f
12:50pm 4.5ft 16s 5s 11 13 mph 1013mb 67f 65f
11:50am 4.5ft 16s 5s 13 16 mph 1013.3mb 67f 64f
10:50am 4.5ft 16s 5s 18 22 mph 1013.4mb 67f 64f
9:50am 4ft 15s 6s 20 25 mph 1013mb 67f 66f
8:50am 4.5ft 16s 6s 13 16 mph 1012.8mb 67f 66f
7:50am 5ft 6s 6s 9 11 mph 1012.4mb 67f 66f
6:50am 5ft 15s 5s 13 16 mph 1012.2mb 66f 66f
5:50am 5.5ft 6s 5s 20 22 mph 1011.9mb 66f 66f
4:50am 6ft 6s 5s 20 25 mph 1012.1mb 66f 66f
3:50am 6.5ft 6s 5s 20 25 mph 1012.3mb 67f 67f
2:50am 6ft 6s 5s 22 27 mph 1012.7mb 67f 67f
1:50am 6ft 6s 5s 22 27 mph 1012.9mb 67f 67f
12:50am 6.5ft 6s 5s 22 27 mph 1013.1mb 67f 67f
Thu 08/27 11:50pm 6ft 6s 5s 25 29 mph 1013.2mb 67f 67f
10:50pm 6.5ft 6s 5s 25 31 mph 1013.4mb 67f 67f
9:50pm 6ft 6s 5s 25 31 mph 1013.5mb 67f 67f
8:50pm 6ft 6s 5s 25 31 mph 1013.1mb 67f 67f
7:50pm 5.5ft 6s 5s 25 29 mph 1012.5mb 67f 67f
6:50pm 5.5ft 5s 5s 25 29 mph 1012.9mb 67f 67f
5:50pm 5ft 5s 5s 25 29 mph 1013.6mb 67f 67f
4:50pm 5ft 5s 5s 22 27 mph 1014.2mb 67f 67f
3:50pm 5ft 5s 5s 22 27 mph 1015.1mb 67f 67f
2:50pm 4.5ft 5s 5s 18 22 mph 1015.6mb 67f 67f
1:50pm 5ft 5s 5s 18 20 mph 1016.2mb 67f 67f
12:50pm 4.5ft 15s 5s 18 20 mph 1016.4mb 67f 66f
11:50am 5ft 6s 5s 16 20 mph 1016.4mb 67f 66f
10:50am 5ft 5s 5s 18 22 mph 1016.3mb 67f 65f
9:50am 5ft 6s 5s 18 20 mph 1016.2mb 67f 65f
8:50am 5ft 6s 5s 18 20 mph 1016mb 67f 65f
7:50am 5ft 6s 5s 18 22 mph 1016.2mb 67f 65f